createdAt,value
2022-12-02T00:00:27.498Z,77.00
2022-12-02T00:02:57.231Z,77.10
2022-12-02T00:05:35.149Z,77.10
2022-12-02T00:08:17.277Z,77.10
2022-12-02T00:10:45.561Z,77.10
2022-12-02T00:13:22.144Z,77.10
2022-12-02T00:15:59.206Z,77.10
2022-12-02T00:18:27.882Z,77.10
2022-12-02T00:20:56.159Z,77.10
2022-12-02T00:23:24.282Z,77.10
2022-12-02T00:25:53.963Z,77.00
2022-12-02T00:28:22.249Z,76.90
2022-12-02T00:30:50.030Z,76.80
2022-12-02T00:33:19.093Z,76.80
2022-12-02T00:35:46.709Z,76.70
2022-12-02T00:38:14.241Z,76.50
2022-12-02T00:40:41.645Z,76.50
2022-12-02T00:43:27.562Z,76.40
2022-12-02T00:46:13.912Z,76.40
2022-12-02T00:48:41.513Z,76.40
2022-12-02T00:51:09.089Z,76.30
2022-12-02T00:53:36.540Z,76.30
2022-12-02T00:56:04.102Z,76.30
2022-12-02T00:58:31.785Z,76.30
2022-12-02T01:00:59.456Z,76.90
2022-12-02T01:03:27.228Z,76.30
2022-12-02T01:05:54.730Z,76.30
2022-12-02T01:08:25.628Z,76.30
2022-12-02T01:10:53.906Z,76.30
2022-12-02T01:13:21.978Z,76.30
2022-12-02T01:15:49.560Z,76.30
2022-12-02T01:18:17.331Z,76.30
2022-12-02T01:20:45.268Z,76.30
2022-12-02T01:23:13.205Z,76.40
2022-12-02T01:25:41.090Z,76.40
2022-12-02T01:28:08.751Z,76.40
2022-12-02T01:30:36.630Z,76.40
2022-12-02T01:33:04.168Z,76.50
2022-12-02T01:35:32.254Z,76.40
2022-12-02T01:37:59.858Z,76.40
2022-12-02T01:40:28.792Z,76.40
2022-12-02T01:42:56.334Z,76.40
2022-12-02T01:45:26.776Z,76.50
2022-12-02T01:47:54.613Z,76.50
2022-12-02T01:50:23.129Z,76.50
2022-12-02T01:52:56.418Z,76.60
2022-12-02T01:55:29.497Z,76.60
2022-12-02T01:57:58.436Z,76.70
2022-12-02T02:00:26.706Z,76.70
2022-12-02T02:02:54.522Z,76.70
2022-12-02T02:05:25.250Z,76.60
2022-12-02T02:07:55.204Z,76.60
2022-12-02T02:10:24.970Z,76.60
2022-12-02T02:12:53.513Z,76.60
2022-12-02T02:15:23.041Z,76.70
2022-12-02T02:17:51.199Z,76.70
2022-12-02T02:20:22.507Z,76.70
2022-12-02T02:23:04.831Z,76.70
2022-12-02T02:25:37.917Z,76.70
2022-12-02T02:28:06.916Z,76.70
2022-12-02T02:30:35.619Z,76.80
2022-12-02T02:33:06.749Z,76.70
2022-12-02T02:35:38.371Z,76.70
2022-12-02T02:42:01.260Z,77.30
2022-12-02T02:44:29.795Z,76.80
2022-12-02T02:46:58.348Z,76.70
2022-12-02T02:49:26.317Z,76.70
2022-12-02T02:51:53.928Z,76.70
2022-12-02T02:54:22.218Z,76.70
2022-12-02T02:56:49.829Z,76.70
2022-12-02T02:59:18.245Z,76.70
2022-12-02T03:01:51.197Z,76.70
2022-12-02T03:04:22.351Z,76.60
2022-12-02T03:06:50.981Z,76.70
2022-12-02T03:09:22.468Z,76.60
2022-12-02T03:11:53.644Z,76.60
2022-12-02T03:14:22.626Z,76.70
2022-12-02T03:16:51.188Z,76.60
2022-12-02T03:19:19.645Z,76.60
2022-12-02T03:21:48.092Z,76.60
2022-12-02T03:24:15.994Z,76.60
2022-12-02T03:26:43.896Z,76.60
2022-12-02T03:29:13.834Z,76.60
2022-12-02T03:31:42.254Z,76.60
2022-12-02T03:34:10.090Z,76.60
2022-12-02T03:36:37.707Z,76.70
2022-12-02T03:39:05.972Z,76.70
2022-12-02T03:41:33.723Z,76.70
2022-12-02T03:44:01.351Z,76.70
2022-12-02T03:46:30.699Z,76.70
2022-12-02T03:48:59.723Z,76.70
2022-12-02T03:51:27.861Z,76.70
2022-12-02T03:53:55.769Z,76.80
2022-12-02T03:56:23.997Z,76.80
2022-12-02T03:58:53.092Z,76.80
2022-12-02T04:01:22.072Z,76.80
2022-12-02T04:03:49.620Z,76.80
2022-12-02T04:06:17.369Z,76.80
2022-12-02T04:08:44.888Z,76.70
2022-12-02T04:11:12.367Z,76.80
2022-12-02T04:13:39.869Z,76.70
2022-12-02T04:16:10.509Z,76.80
2022-12-02T04:18:37.958Z,76.80
2022-12-02T04:21:05.505Z,76.80
2022-12-02T04:23:33.010Z,76.80
2022-12-02T04:26:00.581Z,76.80
2022-12-02T04:28:28.508Z,76.80
2022-12-02T04:30:56.240Z,76.80
2022-12-02T04:33:24.128Z,76.80
2022-12-02T04:35:51.755Z,76.90
2022-12-02T04:38:19.409Z,76.80
2022-12-02T04:40:46.929Z,76.90
2022-12-02T04:43:14.430Z,76.90
2022-12-02T04:45:41.925Z,76.90
2022-12-02T04:48:09.376Z,77.00
2022-12-02T04:50:36.801Z,77.00
2022-12-02T04:53:04.321Z,76.90
2022-12-02T04:55:31.786Z,77.00
2022-12-02T04:57:59.326Z,77.00
2022-12-02T05:00:26.984Z,77.00
2022-12-02T05:02:54.540Z,77.00
2022-12-02T05:05:22.040Z,77.00
2022-12-02T05:07:49.602Z,77.00
2022-12-02T05:10:17.303Z,77.00
2022-12-02T05:12:44.750Z,77.10
2022-12-02T05:15:12.293Z,77.10
2022-12-02T05:17:42.358Z,77.10
2022-12-02T05:20:11.734Z,77.10
2022-12-02T05:22:39.280Z,77.20
2022-12-02T05:25:07.407Z,77.20
2022-12-02T05:27:35.838Z,77.20
2022-12-02T05:30:05.306Z,77.20
2022-12-02T05:32:32.759Z,77.20
2022-12-02T05:35:00.264Z,77.20
2022-12-02T05:37:27.730Z,77.20
2022-12-02T05:39:55.221Z,77.30
2022-12-02T05:42:22.874Z,77.80
2022-12-02T05:44:50.297Z,77.30
2022-12-02T05:47:18.805Z,77.20
2022-12-02T05:49:47.266Z,77.20
2022-12-02T05:52:24.534Z,77.80
2022-12-02T05:54:54.531Z,77.20
2022-12-02T05:57:28.461Z,77.30
2022-12-02T06:00:14.636Z,77.30
2022-12-02T06:02:51.964Z,77.30
2022-12-02T06:05:22.877Z,77.40
2022-12-02T06:07:55.183Z,77.40
2022-12-02T06:10:32.750Z,77.40
2022-12-02T06:13:12.919Z,77.40
2022-12-02T06:15:40.585Z,77.40
2022-12-02T06:18:21.916Z,77.40
2022-12-02T06:20:56.202Z,77.50
2022-12-02T06:23:27.198Z,77.50
2022-12-02T06:25:57.934Z,77.50
2022-12-02T06:28:47.764Z,77.60
2022-12-02T06:31:26.180Z,77.60
2022-12-02T06:33:57.345Z,77.60
2022-12-02T06:36:33.083Z,77.60
2022-12-02T06:39:07.208Z,77.70
2022-12-02T06:41:37.953Z,77.70
2022-12-02T06:44:40.540Z,77.80
2022-12-02T06:47:34.171Z,77.80
2022-12-02T06:50:04.905Z,77.90
2022-12-02T06:52:39.773Z,77.90
2022-12-02T06:55:34.367Z,77.90
2022-12-02T06:58:34.493Z,77.90
2022-12-02T07:01:22.561Z,77.90
2022-12-02T07:04:04.069Z,78.00
2022-12-02T07:06:32.743Z,78.00
2022-12-02T07:09:06.389Z,78.10
2022-12-02T07:11:56.145Z,78.00
2022-12-02T07:14:50.371Z,78.00
2022-12-02T07:17:32.354Z,77.90
2022-12-02T07:20:02.821Z,77.90
2022-12-02T07:22:35.270Z,77.80
2022-12-02T07:25:24.814Z,77.70
2022-12-02T07:27:52.697Z,77.60
2022-12-02T07:30:26.045Z,77.50
2022-12-02T07:32:53.845Z,77.30
2022-12-02T07:35:22.123Z,77.30
2022-12-02T07:37:50.187Z,77.10
2022-12-02T07:40:18.972Z,77.10
2022-12-02T07:42:46.820Z,77.00
2022-12-02T07:45:16.977Z,77.00
2022-12-02T07:47:44.959Z,76.90
2022-12-02T07:50:15.149Z,76.90
2022-12-02T07:52:42.820Z,76.90
2022-12-02T07:55:10.726Z,76.80
2022-12-02T07:57:39.471Z,76.70
2022-12-02T08:00:09.804Z,76.60
2022-12-02T08:02:40.422Z,76.30
2022-12-02T08:05:08.544Z,76.20
2022-12-02T08:07:36.414Z,76.10
2022-12-02T08:10:04.807Z,76.00
2022-12-02T08:12:32.373Z,76.00
2022-12-02T08:14:59.954Z,76.00
2022-12-02T08:17:27.523Z,76.00
2022-12-02T08:19:55.296Z,75.80
2022-12-02T08:22:22.826Z,75.60
2022-12-02T08:24:50.660Z,75.50
2022-12-02T08:27:18.271Z,75.50
2022-12-02T08:29:45.765Z,75.50
2022-12-02T08:32:13.219Z,75.50
2022-12-02T08:34:40.644Z,75.60
2022-12-02T08:37:08.078Z,75.50
2022-12-02T08:39:35.731Z,75.60
2022-12-02T08:42:03.294Z,75.60
2022-12-02T08:44:31.177Z,75.50
2022-12-02T08:46:58.950Z,75.50
2022-12-02T08:49:26.976Z,75.50
2022-12-02T08:51:54.840Z,75.40
2022-12-02T08:54:22.735Z,75.40
2022-12-02T08:56:50.586Z,75.30
2022-12-02T08:59:18.704Z,75.50
2022-12-02T09:01:46.377Z,75.40
2022-12-02T09:04:16.231Z,75.50
2022-12-02T09:06:43.811Z,75.50
2022-12-02T09:09:11.685Z,75.60
2022-12-02T09:11:39.268Z,75.60
2022-12-02T09:14:06.753Z,75.70
2022-12-02T09:16:34.246Z,75.70
2022-12-02T09:19:01.745Z,75.60
2022-12-02T09:21:29.358Z,75.60
2022-12-02T09:23:56.908Z,75.60
2022-12-02T09:26:24.452Z,75.60
2022-12-02T09:28:51.979Z,75.50
2022-12-02T09:31:19.698Z,75.60
2022-12-02T09:33:47.373Z,76.20
2022-12-02T09:36:14.862Z,75.50
2022-12-02T09:38:42.417Z,75.30
2022-12-02T09:41:10.128Z,75.20
2022-12-02T09:43:37.849Z,75.30
2022-12-02T09:46:06.580Z,75.30
2022-12-02T09:48:34.259Z,75.20
2022-12-02T09:51:02.472Z,75.30
2022-12-02T09:53:34.276Z,75.30
2022-12-02T09:56:02.335Z,75.40
2022-12-02T09:58:29.865Z,75.40
2022-12-02T10:00:57.500Z,75.40
2022-12-02T10:03:28.305Z,75.50
2022-12-02T10:05:56.663Z,75.50
2022-12-02T10:08:31.698Z,75.60
2022-12-02T10:11:00.433Z,75.80
2022-12-02T10:13:29.482Z,75.70
2022-12-02T10:15:57.091Z,75.70
2022-12-02T10:18:30.586Z,75.70
2022-12-02T10:20:58.241Z,75.50
2022-12-02T10:23:27.641Z,75.50
2022-12-02T10:26:13.602Z,75.30
2022-12-02T10:28:42.845Z,75.20
2022-12-02T10:31:22.822Z,75.20
2022-12-02T10:34:19.328Z,75.20
2022-12-02T10:36:46.817Z,75.10
2022-12-02T10:39:25.035Z,74.90
2022-12-02T10:42:04.791Z,75.10
2022-12-02T10:44:34.714Z,75.10
2022-12-02T10:47:26.094Z,75.30
2022-12-02T10:49:59.608Z,75.20
2022-12-02T10:53:07.113Z,75.20
2022-12-02T10:55:34.551Z,75.10
2022-12-02T10:58:02.022Z,75.00
2022-12-02T11:00:29.700Z,75.00
2022-12-02T11:03:04.452Z,74.90
2022-12-02T11:05:34.447Z,74.90
2022-12-02T11:08:03.553Z,75.00
2022-12-02T11:10:36.196Z,74.90
2022-12-02T11:13:07.744Z,74.70
2022-12-02T11:15:39.406Z,74.50
2022-12-02T11:18:09.882Z,74.30
2022-12-02T11:20:40.858Z,74.50
2022-12-02T11:23:19.184Z,74.80
2022-12-02T11:25:49.108Z,74.60
2022-12-02T11:28:38.423Z,74.60
2022-12-02T11:31:12.385Z,74.70
2022-12-02T11:33:54.020Z,74.60
2022-12-02T11:36:28.056Z,75.00
2022-12-02T11:38:58.682Z,74.60
2022-12-02T11:41:29.132Z,74.60
2022-12-02T11:44:15.015Z,74.50
2022-12-02T11:46:52.791Z,74.50
2022-12-02T11:49:21.394Z,74.60
2022-12-02T11:51:49.303Z,74.50
2022-12-02T11:54:19.314Z,74.50
2022-12-02T11:56:48.734Z,74.60
2022-12-02T11:59:31.873Z,74.40
2022-12-02T12:02:13.661Z,74.30
2022-12-02T12:04:42.245Z,74.00
2022-12-02T12:07:10.601Z,74.00
2022-12-02T12:09:38.519Z,74.00
2022-12-02T12:12:19.304Z,74.00
2022-12-02T12:15:06.588Z,73.90
2022-12-02T12:17:40.239Z,73.80
2022-12-02T12:20:17.300Z,73.80
2022-12-02T12:22:45.254Z,73.20
2022-12-02T12:25:40.376Z,72.90
2022-12-02T12:28:26.029Z,72.50
2022-12-02T12:30:53.940Z,72.70
2022-12-02T12:33:21.950Z,72.60
2022-12-02T12:35:51.975Z,72.50
2022-12-02T12:38:19.616Z,72.30
2022-12-02T12:40:47.110Z,72.50
2022-12-02T12:43:14.517Z,72.60
2022-12-02T12:45:42.593Z,72.60
2022-12-02T12:48:12.917Z,72.70
2022-12-02T12:50:40.439Z,73.00
2022-12-02T12:53:07.834Z,72.90
2022-12-02T12:55:35.398Z,73.50
2022-12-02T12:58:02.786Z,73.00
2022-12-02T13:00:30.377Z,72.80
2022-12-02T13:02:57.947Z,72.60
2022-12-02T13:05:25.461Z,72.70
2022-12-02T13:07:53.132Z,72.60
2022-12-02T13:10:21.543Z,72.50
2022-12-02T13:12:50.035Z,72.50
2022-12-02T13:15:17.752Z,72.50
2022-12-02T13:17:49.036Z,72.60
2022-12-02T13:20:19.270Z,72.70
2022-12-02T13:22:46.843Z,72.70
2022-12-02T13:25:14.816Z,72.70
2022-12-02T13:27:42.453Z,72.80
2022-12-02T13:30:14.421Z,72.60
2022-12-02T13:32:42.161Z,72.50
2022-12-02T13:35:09.869Z,72.50
2022-12-02T13:37:40.339Z,72.50
2022-12-02T13:40:10.194Z,72.40
2022-12-02T13:42:37.586Z,72.40
2022-12-02T13:45:06.355Z,72.60
2022-12-02T13:47:33.851Z,72.00
2022-12-02T13:50:01.629Z,72.00
2022-12-02T13:52:29.130Z,72.10
2022-12-02T13:54:56.591Z,72.20
2022-12-02T13:57:24.076Z,72.30
2022-12-02T13:59:51.630Z,72.30
2022-12-02T14:02:19.050Z,72.40
2022-12-02T14:04:46.477Z,72.50
2022-12-02T14:07:14.015Z,72.50
2022-12-02T14:09:41.548Z,72.40
2022-12-02T14:12:09.181Z,72.50
2022-12-02T14:14:36.615Z,72.50
2022-12-02T14:17:04.161Z,72.50
2022-12-02T14:19:31.653Z,72.60
2022-12-02T14:21:59.128Z,72.80
2022-12-02T14:24:26.564Z,72.80
2022-12-02T14:26:53.956Z,72.80
2022-12-02T14:29:21.373Z,72.80
2022-12-02T14:31:49.000Z,72.90
2022-12-02T14:34:16.479Z,73.60
2022-12-02T14:36:44.265Z,73.00
2022-12-02T14:39:12.184Z,73.10
2022-12-02T14:41:39.713Z,73.20
2022-12-02T14:44:07.300Z,73.20
2022-12-02T14:46:34.881Z,73.30
2022-12-02T14:49:37.311Z,73.30
2022-12-02T14:51:50.072Z,73.40
2022-12-02T14:54:17.571Z,73.50
2022-12-02T14:56:45.024Z,73.50
2022-12-02T14:59:14.921Z,73.60
2022-12-02T15:01:42.931Z,73.50
2022-12-02T15:04:10.695Z,73.50
2022-12-02T15:06:38.481Z,73.50
2022-12-02T15:09:06.170Z,73.50
2022-12-02T15:11:33.734Z,73.50
2022-12-02T15:14:01.192Z,73.50
2022-12-02T15:16:28.725Z,73.50
2022-12-02T15:19:05.263Z,73.50
2022-12-02T15:21:32.781Z,73.40
2022-12-02T15:24:00.217Z,73.40
2022-12-02T15:26:27.708Z,73.30
2022-12-02T15:28:55.275Z,73.30
2022-12-02T15:31:22.872Z,73.40
2022-12-02T15:33:50.338Z,73.30
2022-12-02T15:36:17.795Z,73.40
2022-12-02T15:38:45.292Z,73.30
2022-12-02T15:41:13.253Z,73.30
2022-12-02T15:43:40.757Z,73.30
2022-12-02T15:46:08.253Z,73.30
2022-12-02T15:48:35.863Z,73.30
2022-12-02T15:51:03.309Z,73.30
2022-12-02T15:53:30.775Z,73.40
2022-12-02T15:55:58.359Z,73.40
2022-12-02T15:58:25.993Z,73.50
2022-12-02T16:00:53.547Z,73.50
2022-12-02T16:03:21.141Z,73.50
2022-12-02T16:05:48.544Z,73.50
2022-12-02T16:08:15.989Z,73.50
2022-12-02T16:10:43.409Z,73.50
2022-12-02T16:13:10.851Z,73.50
2022-12-02T16:15:38.668Z,74.10
2022-12-02T16:18:06.628Z,73.60
2022-12-02T16:20:34.234Z,73.60
2022-12-02T16:23:01.674Z,73.60
2022-12-02T16:25:29.237Z,73.60
2022-12-02T16:27:56.720Z,73.60
2022-12-02T16:30:24.250Z,73.60
2022-12-02T16:32:52.334Z,73.70
2022-12-02T16:35:19.900Z,73.70
2022-12-02T16:37:47.556Z,73.80
2022-12-02T16:40:15.119Z,73.80
2022-12-02T16:42:42.579Z,73.80
2022-12-02T16:45:10.585Z,73.80
2022-12-02T16:47:38.218Z,73.80
2022-12-02T16:50:06.196Z,73.80
2022-12-02T16:52:33.704Z,74.40
2022-12-02T16:55:01.167Z,73.80
2022-12-02T16:57:28.706Z,73.80
2022-12-02T16:59:56.263Z,73.70
2022-12-02T17:02:28.794Z,73.60
2022-12-02T17:04:59.330Z,74.00
2022-12-02T17:07:26.900Z,73.30
2022-12-02T17:09:54.556Z,73.20
2022-12-02T17:12:22.152Z,73.00
2022-12-02T17:14:54.749Z,72.90
2022-12-02T17:17:44.955Z,72.80
2022-12-02T17:20:11.093Z,72.80
2022-12-02T17:22:38.606Z,72.30
2022-12-02T17:25:06.711Z,72.50
2022-12-02T17:27:34.290Z,72.20
2022-12-02T17:30:02.013Z,72.10
2022-12-02T17:32:29.584Z,72.00
2022-12-02T17:34:57.377Z,71.70
2022-12-02T17:37:25.022Z,71.80
2022-12-02T17:39:52.539Z,71.70
2022-12-02T17:42:20.231Z,71.70
2022-12-02T17:44:47.738Z,70.70
2022-12-02T17:47:15.371Z,70.90
2022-12-02T17:49:43.111Z,71.00
2022-12-02T17:52:25.614Z,71.10
2022-12-02T17:54:53.340Z,71.20
2022-12-02T17:57:21.048Z,71.50
2022-12-02T17:59:48.644Z,71.40
2022-12-02T18:02:16.956Z,71.30
2022-12-02T18:04:44.914Z,71.40
2022-12-02T18:07:13.101Z,71.50
2022-12-02T18:09:41.233Z,71.40
2022-12-02T18:12:10.135Z,71.20
2022-12-02T18:14:37.718Z,71.30
2022-12-02T18:17:07.202Z,71.20
2022-12-02T18:19:34.954Z,71.00
2022-12-02T18:22:02.490Z,71.30
2022-12-02T18:24:30.022Z,71.40
2022-12-02T18:26:57.914Z,71.30
2022-12-02T18:29:25.484Z,71.00
2022-12-02T18:31:53.025Z,71.00
2022-12-02T18:34:20.590Z,71.00
2022-12-02T18:36:48.182Z,71.10
2022-12-02T18:39:16.530Z,71.00
2022-12-02T18:41:44.102Z,71.00
2022-12-02T18:44:12.401Z,70.90
2022-12-02T18:46:40.051Z,70.90
2022-12-02T18:49:08.287Z,70.70
2022-12-02T18:51:36.267Z,70.80
2022-12-02T18:54:04.341Z,70.80
2022-12-02T18:56:31.913Z,70.80
2022-12-02T18:58:59.452Z,70.90
2022-12-02T19:01:32.312Z,71.00
2022-12-02T19:04:01.456Z,70.70
2022-12-02T19:06:29.347Z,70.90
2022-12-02T19:08:56.854Z,71.00
2022-12-02T19:11:24.483Z,70.90
2022-12-02T19:13:52.013Z,71.00
2022-12-02T19:16:19.670Z,70.90
2022-12-02T19:18:47.556Z,70.90
2022-12-02T19:21:17.824Z,71.50
2022-12-02T19:23:47.451Z,71.00
2022-12-02T19:26:15.197Z,71.20
2022-12-02T19:28:44.111Z,71.20
2022-12-02T19:31:11.920Z,71.20
2022-12-02T19:33:40.159Z,71.20
2022-12-02T19:36:07.924Z,71.30
2022-12-02T19:38:35.458Z,71.40
2022-12-02T19:41:02.863Z,71.60
2022-12-02T19:43:35.316Z,71.60
2022-12-02T19:46:04.014Z,71.70
2022-12-02T19:48:31.660Z,71.70
2022-12-02T19:50:59.157Z,71.80
2022-12-02T19:53:26.602Z,71.80
2022-12-02T19:55:54.068Z,71.90
2022-12-02T19:58:21.628Z,72.00
2022-12-02T20:00:49.222Z,72.10
2022-12-02T20:03:16.737Z,72.10
2022-12-02T20:05:44.536Z,72.20
2022-12-02T20:08:12.646Z,72.20
2022-12-02T20:10:40.279Z,72.30
2022-12-02T20:13:07.784Z,72.30
2022-12-02T20:15:36.752Z,72.30
2022-12-02T20:18:04.382Z,72.30
2022-12-02T20:20:33.348Z,72.30
2022-12-02T20:23:01.835Z,72.40
2022-12-02T20:25:29.690Z,72.40
2022-12-02T20:27:57.238Z,72.40
2022-12-02T20:30:25.046Z,72.40
2022-12-02T20:32:52.733Z,72.40
2022-12-02T20:35:21.992Z,72.50
2022-12-02T20:37:49.662Z,72.50
2022-12-02T20:40:18.287Z,72.50
2022-12-02T20:42:46.875Z,72.50
2022-12-02T20:45:15.851Z,72.50
2022-12-02T20:47:43.542Z,72.50
2022-12-02T20:50:12.450Z,72.50
2022-12-02T20:52:40.191Z,72.50
2022-12-02T20:55:08.816Z,73.00
2022-12-02T20:57:38.783Z,72.40
2022-12-02T21:00:07.713Z,72.40
2022-12-02T21:02:35.550Z,72.40
2022-12-02T21:05:03.244Z,72.40
2022-12-02T21:07:30.854Z,72.50
2022-12-02T21:09:58.483Z,72.40
2022-12-02T21:12:25.925Z,72.30
2022-12-02T21:14:54.022Z,72.30
2022-12-02T21:17:21.804Z,72.40
2022-12-02T21:19:49.393Z,72.50
2022-12-02T21:22:16.950Z,72.50
2022-12-02T21:24:44.483Z,72.60
2022-12-02T21:27:12.301Z,72.60
2022-12-02T21:29:39.980Z,72.60
2022-12-02T21:32:07.800Z,72.60
2022-12-02T21:34:35.264Z,72.70
2022-12-02T21:37:02.907Z,72.70
2022-12-02T21:39:30.528Z,72.80
2022-12-02T21:41:58.026Z,72.80
2022-12-02T21:44:25.652Z,72.80
2022-12-02T21:46:53.210Z,73.00
2022-12-02T21:49:21.113Z,73.00
2022-12-02T21:51:49.850Z,73.10
2022-12-02T21:54:17.688Z,73.10
2022-12-02T21:56:45.430Z,73.20
2022-12-02T21:59:13.624Z,73.20
2022-12-02T22:01:42.939Z,73.30
2022-12-02T22:04:13.451Z,73.40
2022-12-02T22:06:41.389Z,73.40
2022-12-02T22:09:09.096Z,73.40
2022-12-02T22:11:37.325Z,73.50
2022-12-02T22:14:05.592Z,73.60
2022-12-02T22:16:33.584Z,73.70
2022-12-02T22:19:01.144Z,73.80
2022-12-02T22:21:29.580Z,73.80
2022-12-02T22:23:57.094Z,73.90
2022-12-02T22:26:24.520Z,74.10
2022-12-02T22:28:52.251Z,74.10
2022-12-02T22:31:19.750Z,74.30
2022-12-02T22:33:47.239Z,74.40
2022-12-02T22:36:14.717Z,74.50
2022-12-02T22:38:42.251Z,74.50
2022-12-02T22:41:09.711Z,74.70
2022-12-02T22:43:37.103Z,74.70
2022-12-02T22:46:04.659Z,74.80
2022-12-02T22:48:32.209Z,74.90
2022-12-02T22:50:59.675Z,74.90
2022-12-02T22:53:27.107Z,75.00
2022-12-02T22:55:54.562Z,75.00
2022-12-02T22:58:22.260Z,75.10
2022-12-02T23:00:49.774Z,75.10
2022-12-02T23:03:17.412Z,75.20
2022-12-02T23:05:44.862Z,75.20
2022-12-02T23:08:12.443Z,75.30
2022-12-02T23:10:40.041Z,75.50
2022-12-02T23:13:08.906Z,75.50
2022-12-02T23:15:38.477Z,75.50
2022-12-02T23:18:07.618Z,75.50
2022-12-02T23:20:35.905Z,75.30
2022-12-02T23:23:03.925Z,75.30
2022-12-02T23:25:31.546Z,75.20
2022-12-02T23:27:58.986Z,75.10
2022-12-02T23:30:29.245Z,75.10
2022-12-02T23:32:58.435Z,75.00
2022-12-02T23:35:27.133Z,75.00
2022-12-02T23:37:54.764Z,75.00
2022-12-02T23:40:22.462Z,75.10
2022-12-02T23:42:50.003Z,75.20
2022-12-02T23:45:17.492Z,75.20
2022-12-02T23:47:44.990Z,75.30
2022-12-02T23:50:13.328Z,75.30
2022-12-02T23:52:40.793Z,75.40
2022-12-02T23:55:08.792Z,75.50
2022-12-02T23:57:36.257Z,75.60
